createdAt,value
2022-08-04T00:00:10.005Z,20.17
2022-08-04T00:03:19.383Z,20.19
2022-08-04T00:06:31.778Z,20.23
2022-08-04T00:09:22.052Z,20.24
2022-08-04T00:12:00.461Z,20.27
2022-08-04T00:14:38.197Z,20.28
2022-08-04T00:17:08.570Z,20.31
2022-08-04T00:19:49.310Z,20.28
2022-08-04T00:22:28.699Z,20.16
2022-08-04T00:24:57.863Z,20.17
2022-08-04T00:27:25.161Z,20.17
2022-08-04T00:29:53.236Z,20.05
2022-08-04T00:32:33.708Z,20.01
2022-08-04T00:35:03.257Z,19.90
2022-08-04T00:37:33.699Z,19.86
2022-08-04T00:40:18.681Z,19.88
2022-08-04T00:43:18.367Z,19.67
2022-08-04T00:46:17.308Z,19.73
2022-08-04T00:50:13.499Z,19.71
2022-08-04T00:53:27.022Z,19.62
2022-08-04T00:56:40.335Z,19.65
2022-08-04T00:59:51.315Z,19.68
2022-08-04T01:02:39.663Z,19.68
2022-08-04T01:05:45.321Z,19.57
2022-08-04T01:08:49.754Z,19.63
2022-08-04T01:12:02.974Z,19.71
2022-08-04T01:15:02.893Z,19.68
2022-08-04T01:18:07.678Z,19.74
2022-08-04T01:21:12.544Z,19.77
2022-08-04T01:24:55.175Z,19.76
2022-08-04T01:28:08.397Z,19.66
2022-08-04T01:30:46.071Z,19.63
2022-08-04T01:33:19.464Z,19.55
2022-08-04T01:36:01.538Z,19.60
2022-08-04T01:38:41.129Z,19.58
2022-08-04T01:41:14.473Z,19.51
2022-08-04T01:43:46.285Z,19.57
2022-08-04T01:46:17.713Z,19.56
2022-08-04T01:48:54.161Z,19.54
2022-08-04T01:51:25.611Z,19.46
2022-08-04T01:53:52.663Z,19.35
2022-08-04T01:56:22.496Z,19.30
2022-08-04T01:58:49.667Z,19.32
2022-08-04T02:01:16.765Z,19.23
2022-08-04T02:04:20.971Z,19.17
2022-08-04T02:07:03.744Z,19.20
2022-08-04T02:09:55.008Z,19.16
2022-08-04T02:12:46.395Z,19.11
2022-08-04T02:16:06.751Z,19.04
2022-08-04T02:19:33.216Z,18.96
2022-08-04T02:22:17.386Z,18.92
2022-08-04T02:24:53.244Z,18.88
2022-08-04T02:28:00.302Z,18.89
2022-08-04T02:30:43.891Z,18.91
2022-08-04T02:33:26.856Z,18.90
2022-08-04T02:36:02.539Z,18.88
2022-08-04T02:38:49.769Z,18.84
2022-08-04T02:41:21.858Z,18.84
2022-08-04T02:43:52.709Z,18.79
2022-08-04T02:46:22.758Z,18.74
2022-08-04T02:48:53.560Z,18.66
2022-08-04T02:51:45.938Z,18.57
2022-08-04T02:54:31.876Z,18.50
2022-08-04T02:57:04.462Z,18.44
2022-08-04T03:00:20.003Z,18.42
2022-08-04T03:03:23.327Z,18.46
2022-08-04T03:06:11.510Z,18.44
2022-08-04T03:09:18.490Z,18.37
2022-08-04T03:13:06.235Z,18.35
2022-08-04T03:16:34.428Z,18.31
2022-08-04T03:19:53.032Z,18.30
2022-08-04T03:23:14.028Z,18.26
2022-08-04T03:26:10.203Z,18.30
2022-08-04T03:29:43.758Z,18.25
2022-08-04T03:32:49.677Z,18.26
2022-08-04T03:35:44.147Z,18.23
2022-08-04T03:38:30.596Z,18.24
2022-08-04T03:42:03.978Z,18.21
2022-08-04T03:45:23.680Z,18.15
2022-08-04T03:48:53.769Z,18.08
2022-08-04T03:52:32.920Z,18.05
2022-08-04T03:55:49.528Z,18.07
2022-08-04T03:58:48.561Z,18.04
2022-08-04T04:02:12.637Z,18.02
2022-08-04T04:05:12.927Z,18.02
2022-08-04T04:08:53.510Z,18.13
2022-08-04T04:11:56.665Z,18.10
2022-08-04T04:15:20.883Z,18.12
2022-08-04T04:18:17.230Z,18.16
2022-08-04T04:21:05.614Z,18.15
2022-08-04T04:23:52.509Z,18.18
2022-08-04T04:26:51.813Z,18.24
2022-08-04T04:29:49.135Z,18.29
2022-08-04T04:32:35.637Z,18.29
2022-08-04T04:35:26.403Z,18.29
2022-08-04T04:39:11.632Z,18.30
2022-08-04T04:42:15.500Z,18.37
2022-08-04T04:45:31.544Z,18.51
2022-08-04T04:48:43.045Z,18.56
2022-08-04T04:51:47.358Z,18.67
2022-08-04T04:54:34.519Z,18.74
2022-08-04T04:57:20.815Z,18.78
2022-08-04T05:00:13.761Z,18.84
2022-08-04T05:03:09.676Z,18.91
2022-08-04T05:06:20.008Z,19.06
2022-08-04T05:09:17.614Z,19.17
2022-08-04T05:12:59.202Z,19.29
2022-08-04T05:15:12.501Z,19.44
2022-08-04T05:17:50.263Z,19.57
2022-08-04T05:20:38.213Z,19.71
2022-08-04T05:23:19.687Z,19.79
2022-08-04T05:26:14.739Z,20.04
2022-08-04T05:28:56.110Z,20.19
2022-08-04T05:31:46.951Z,20.38
2022-08-04T05:34:27.974Z,20.58
2022-08-04T05:37:11.867Z,20.76
2022-08-04T05:39:53.411Z,20.93
2022-08-04T05:42:24.015Z,21.11
2022-08-04T05:44:53.347Z,21.32
2022-08-04T05:47:22.502Z,21.53
2022-08-04T05:49:55.637Z,21.76
2022-08-04T05:52:33.053Z,22.01
2022-08-04T05:55:04.047Z,22.21
2022-08-04T05:57:33.393Z,22.40
2022-08-04T06:00:19.820Z,22.64
2022-08-04T06:02:58.783Z,22.91
2022-08-04T06:05:28.291Z,23.17
2022-08-04T06:08:12.753Z,23.40
2022-08-04T06:10:46.336Z,23.68
2022-08-04T06:13:49.649Z,23.92
2022-08-04T06:16:18.088Z,24.23
2022-08-04T06:20:00.492Z,24.41
2022-08-04T06:22:00.200Z,24.67
2022-08-04T06:24:33.418Z,24.89
2022-08-04T06:27:06.341Z,25.14
2022-08-04T06:29:40.415Z,25.44
2022-08-04T06:32:35.641Z,25.68
2022-08-04T06:35:09.820Z,25.95
2022-08-04T06:37:42.421Z,26.24
2022-08-04T06:40:30.561Z,26.46
2022-08-04T06:43:07.253Z,26.66
2022-08-04T06:45:41.338Z,26.95
2022-08-04T06:48:15.156Z,26.75
2022-08-04T06:51:25.895Z,26.98
2022-08-04T06:53:37.827Z,27.15
2022-08-04T06:56:08.685Z,27.47
2022-08-04T06:58:40.813Z,27.66
2022-08-04T07:01:10.433Z,27.88
2022-08-04T07:03:38.633Z,27.98
2022-08-04T07:06:14.027Z,27.95
2022-08-04T07:08:43.235Z,28.27
2022-08-04T07:11:13.177Z,28.39
2022-08-04T07:13:45.193Z,28.33
2022-08-04T07:16:18.511Z,28.67
2022-08-04T07:18:46.378Z,28.82
2022-08-04T07:21:23.454Z,28.96
2022-08-04T07:23:53.781Z,28.98
2022-08-04T07:26:28.432Z,29.13
2022-08-04T07:28:56.900Z,29.05
2022-08-04T07:31:32.439Z,29.33
2022-08-04T07:34:16.714Z,28.99
2022-08-04T07:36:56.026Z,29.14
2022-08-04T07:39:32.251Z,29.48
2022-08-04T07:42:21.596Z,29.71
2022-08-04T07:44:49.586Z,29.86
2022-08-04T07:47:23.445Z,29.52
2022-08-04T07:49:55.655Z,29.22
2022-08-04T07:52:27.990Z,29.63
2022-08-04T07:54:56.404Z,30.07
2022-08-04T07:57:40.424Z,30.24
2022-08-04T08:00:14.915Z,30.02
2022-08-04T08:02:47.097Z,30.35
2022-08-04T08:05:19.419Z,30.83
2022-08-04T08:07:54.585Z,30.90
2022-08-04T08:10:24.228Z,30.95
2022-08-04T08:12:54.049Z,31.16
2022-08-04T08:15:22.592Z,30.65
2022-08-04T08:17:59.842Z,30.87
2022-08-04T08:20:32.470Z,31.32
2022-08-04T08:23:03.277Z,31.46
2022-08-04T08:25:33.802Z,31.43
2022-08-04T08:28:05.527Z,31.55
2022-08-04T08:30:34.486Z,31.40
2022-08-04T08:33:08.593Z,31.48
2022-08-04T08:36:28.805Z,31.28
2022-08-04T08:39:13.604Z,31.43
2022-08-04T08:42:42.659Z,31.78
2022-08-04T08:45:32.921Z,32.17
2022-08-04T08:48:52.635Z,32.54
2022-08-04T08:51:25.147Z,32.64
2022-08-04T08:54:37.542Z,32.71
2022-08-04T08:57:59.819Z,32.55
2022-08-04T09:01:11.890Z,32.83
2022-08-04T09:03:58.746Z,33.06
2022-08-04T09:07:33.902Z,33.12
2022-08-04T09:10:41.806Z,33.16
2022-08-04T09:13:27.814Z,33.09
2022-08-04T09:16:14.611Z,33.11
2022-08-04T09:19:37.230Z,33.20
2022-08-04T09:22:33.315Z,33.18
2022-08-04T09:25:18.091Z,33.44
2022-08-04T09:28:09.591Z,33.54
2022-08-04T09:31:01.532Z,33.76
2022-08-04T09:34:04.234Z,33.78
2022-08-04T09:37:02.665Z,34.18
2022-08-04T09:40:55.231Z,34.19
2022-08-04T09:43:58.857Z,33.58
2022-08-04T09:47:20.861Z,33.63
2022-08-04T09:50:16.806Z,33.74
2022-08-04T09:53:26.736Z,33.40
2022-08-04T09:56:03.766Z,33.93
2022-08-04T09:59:11.196Z,34.30
2022-08-04T10:01:58.859Z,34.73
2022-08-04T10:04:33.821Z,34.78
2022-08-04T10:08:15.674Z,34.83
2022-08-04T10:10:43.720Z,34.75
2022-08-04T10:13:37.873Z,34.94
2022-08-04T10:16:39.887Z,34.93
2022-08-04T10:19:32.547Z,34.51
2022-08-04T10:22:49.601Z,34.81
2022-08-04T10:26:05.756Z,34.97
2022-08-04T10:29:24.607Z,34.99
2022-08-04T10:32:34.233Z,35.04
2022-08-04T10:35:17.831Z,35.06
2022-08-04T10:38:31.971Z,35.00
2022-08-04T10:41:50.274Z,34.78
2022-08-04T10:44:58.630Z,34.84
2022-08-04T10:47:42.079Z,35.03
2022-08-04T10:50:14.296Z,35.20
2022-08-04T10:53:13.760Z,35.25
2022-08-04T10:56:07.082Z,34.63
2022-08-04T10:58:55.630Z,34.08
2022-08-04T11:01:59.421Z,33.92
2022-08-04T11:05:04.770Z,34.34
2022-08-04T11:07:41.139Z,34.28
2022-08-04T11:10:10.024Z,34.24
2022-08-04T11:12:43.230Z,34.46
2022-08-04T11:15:58.021Z,34.64
2022-08-04T11:19:42.683Z,34.63
2022-08-04T11:22:27.596Z,34.64
2022-08-04T11:25:12.020Z,34.33
2022-08-04T11:28:18.770Z,34.55
2022-08-04T11:31:20.370Z,34.61
2022-08-04T11:34:22.045Z,34.64
2022-08-04T11:37:23.911Z,34.75
2022-08-04T11:40:07.645Z,34.62
2022-08-04T11:42:43.492Z,34.66
2022-08-04T11:45:39.535Z,34.71
2022-08-04T11:48:26.984Z,34.73
2022-08-04T11:50:57.050Z,34.60
2022-08-04T11:53:36.921Z,34.20
2022-08-04T11:56:15.236Z,34.38
2022-08-04T11:59:05.245Z,34.55
2022-08-04T12:02:12.154Z,34.70
2022-08-04T12:05:00.522Z,34.81
2022-08-04T12:08:03.778Z,34.84
2022-08-04T12:10:54.591Z,34.71
2022-08-04T12:14:04.196Z,34.83
2022-08-04T12:17:01.595Z,35.02
2022-08-04T12:20:04.492Z,35.23
2022-08-04T12:22:50.885Z,35.32
2022-08-04T12:25:36.658Z,35.08
2022-08-04T12:28:22.507Z,35.00
2022-08-04T12:31:35.355Z,34.83
2022-08-04T12:34:17.353Z,34.78
2022-08-04T12:36:58.731Z,34.93
2022-08-04T12:39:31.812Z,34.97
2022-08-04T12:42:21.311Z,34.98
2022-08-04T12:44:54.434Z,34.92
2022-08-04T12:47:30.371Z,34.98
2022-08-04T12:50:05.471Z,35.07
2022-08-04T12:53:03.376Z,35.19
2022-08-04T12:55:35.650Z,35.34
2022-08-04T12:58:42.285Z,35.28
2022-08-04T13:02:06.974Z,35.34
2022-08-04T13:04:21.860Z,35.35
2022-08-04T13:07:10.971Z,35.24
2022-08-04T13:09:38.639Z,35.33
2022-08-04T13:12:32.587Z,35.35
2022-08-04T13:15:18.592Z,35.38
2022-08-04T13:18:14.836Z,35.60
2022-08-04T13:20:45.528Z,35.76
2022-08-04T13:26:44.423Z,35.80
2022-08-04T13:29:16.698Z,35.73
2022-08-04T13:30:24.215Z,35.76
2022-08-04T13:31:52.732Z,36.04
2022-08-04T13:34:22.991Z,36.35
2022-08-04T13:36:56.082Z,36.34
2022-08-04T13:39:26.624Z,36.42
2022-08-04T13:42:02.308Z,36.52
2022-08-04T13:44:37.260Z,36.23
2022-08-04T13:47:19.478Z,36.03
2022-08-04T13:50:27.368Z,36.09
2022-08-04T13:53:02.100Z,36.03
2022-08-04T13:55:36.986Z,36.16
2022-08-04T13:58:28.425Z,36.13
2022-08-04T14:01:35.664Z,36.16
2022-08-04T14:04:19.310Z,36.46
2022-08-04T14:07:18.204Z,36.64
2022-08-04T14:10:03.661Z,36.97
2022-08-04T14:12:38.678Z,36.91
2022-08-04T14:16:01.455Z,36.86
2022-08-04T14:18:33.966Z,37.11
2022-08-04T14:21:18.164Z,37.08
2022-08-04T14:23:56.429Z,37.03
2022-08-04T14:26:33.820Z,37.32
2022-08-04T14:29:26.203Z,37.62
2022-08-04T14:32:10.591Z,37.69
2022-08-04T14:34:44.767Z,37.63
2022-08-04T14:37:20.534Z,37.55
2022-08-04T14:40:18.028Z,37.67
2022-08-04T14:42:55.049Z,37.65
2022-08-04T14:45:36.113Z,37.87
2022-08-04T14:48:13.253Z,38.20
2022-08-04T14:50:44.906Z,38.10
2022-08-04T14:53:32.213Z,38.37
2022-08-04T14:56:01.190Z,38.65
2022-08-04T14:58:39.019Z,38.13
2022-08-04T15:01:14.622Z,38.23
2022-08-04T15:03:50.341Z,37.98
2022-08-04T15:06:29.322Z,37.98
2022-08-04T15:09:02.429Z,38.16
2022-08-04T15:11:29.842Z,38.14
2022-08-04T15:13:59.271Z,37.98
2022-08-04T15:16:31.988Z,37.32
2022-08-04T15:19:01.080Z,37.10
2022-08-04T15:21:29.906Z,36.86
2022-08-04T15:23:59.245Z,36.30
2022-08-04T15:26:49.404Z,35.67
2022-08-04T15:30:00.259Z,36.24
2022-08-04T15:32:32.374Z,37.79
2022-08-04T15:35:28.886Z,38.41
2022-08-04T15:38:19.377Z,37.64
2022-08-04T15:41:14.350Z,38.14
2022-08-04T15:44:37.142Z,38.78
2022-08-04T15:47:04.001Z,39.30
2022-08-04T15:49:31.551Z,39.52
2022-08-04T15:52:12.803Z,39.59
2022-08-04T15:54:42.313Z,40.04
2022-08-04T15:58:00.270Z,40.24
2022-08-04T16:00:28.637Z,40.27
2022-08-04T16:02:56.039Z,40.43
2022-08-04T16:05:23.501Z,40.03
2022-08-04T16:08:12.434Z,40.05
2022-08-04T16:10:46.095Z,40.26
2022-08-04T16:13:24.300Z,39.87
2022-08-04T16:16:03.513Z,39.66
2022-08-04T16:18:30.852Z,39.63
2022-08-04T16:21:23.422Z,39.71
2022-08-04T16:23:55.924Z,39.59
2022-08-04T16:26:45.198Z,39.31
2022-08-04T16:29:45.730Z,38.76
2022-08-04T16:32:22.836Z,37.75
2022-08-04T16:34:56.974Z,37.06
2022-08-04T16:37:42.801Z,36.39
2022-08-04T16:40:38.190Z,36.03
2022-08-04T16:43:18.598Z,35.66
2022-08-04T16:46:04.786Z,35.23
2022-08-04T16:48:35.595Z,35.11
2022-08-04T16:51:14.763Z,34.93
2022-08-04T16:53:53.578Z,34.75
2022-08-04T16:56:35.304Z,34.70
2022-08-04T16:59:13.499Z,34.58
2022-08-04T17:01:52.133Z,34.46
2022-08-04T17:04:34.830Z,34.38
2022-08-04T17:07:06.169Z,34.25
2022-08-04T17:09:33.558Z,34.10
2022-08-04T17:12:02.312Z,34.06
2022-08-04T17:14:31.703Z,34.03
2022-08-04T17:17:02.549Z,33.94
2022-08-04T17:19:29.644Z,33.80
2022-08-04T17:22:07.418Z,33.70
2022-08-04T17:24:41.056Z,33.59
2022-08-04T17:28:08.656Z,33.44
2022-08-04T17:29:57.349Z,33.48
2022-08-04T17:32:25.399Z,33.84
2022-08-04T17:34:59.300Z,33.96
2022-08-04T17:37:40.086Z,33.97
2022-08-04T17:40:25.708Z,33.66
2022-08-04T17:44:03.014Z,33.25
2022-08-04T17:46:29.561Z,32.82
2022-08-04T17:49:05.870Z,32.57
2022-08-04T17:52:05.265Z,32.25
2022-08-04T17:54:41.032Z,31.96
2022-08-04T17:57:20.235Z,31.70
2022-08-04T17:59:59.242Z,31.54
2022-08-04T18:02:34.703Z,31.35
2022-08-04T18:05:11.604Z,31.13
2022-08-04T18:08:35.335Z,30.92
2022-08-04T18:10:55.038Z,30.73
2022-08-04T18:13:28.813Z,30.62
2022-08-04T18:16:14.325Z,30.49
2022-08-04T18:19:10.654Z,30.33
2022-08-04T18:21:46.640Z,30.16
2022-08-04T18:24:34.363Z,29.98
2022-08-04T18:27:14.555Z,29.79
2022-08-04T18:29:56.542Z,29.63
2022-08-04T18:32:32.924Z,29.48
2022-08-04T18:35:05.143Z,29.35
2022-08-04T18:38:06.685Z,29.25
2022-08-04T18:40:34.277Z,29.10
2022-08-04T18:43:14.443Z,28.97
2022-08-04T18:45:41.670Z,28.85
2022-08-04T18:48:18.450Z,28.69
2022-08-04T18:51:09.318Z,28.59
2022-08-04T18:53:35.056Z,28.47
2022-08-04T18:56:06.375Z,28.40
2022-08-04T18:58:52.798Z,28.29
2022-08-04T19:01:20.125Z,28.16
2022-08-04T19:03:53.991Z,28.08
2022-08-04T19:06:26.003Z,28.00
2022-08-04T19:08:54.621Z,27.88
2022-08-04T19:11:38.395Z,27.73
2022-08-04T19:14:13.224Z,27.45
2022-08-04T19:16:46.032Z,27.21
2022-08-04T19:19:15.644Z,27.00
2022-08-04T19:21:59.355Z,26.83
2022-08-04T19:24:34.653Z,26.63
2022-08-04T19:27:08.293Z,26.40
2022-08-04T19:29:40.701Z,26.27
2022-08-04T19:32:15.027Z,26.16
2022-08-04T19:34:47.854Z,26.10
2022-08-04T19:37:57.179Z,26.02
2022-08-04T19:40:10.398Z,25.93
2022-08-04T19:42:38.397Z,25.85
2022-08-04T19:45:15.555Z,25.79
2022-08-04T19:48:16.953Z,25.72
2022-08-04T19:50:33.201Z,25.65
2022-08-04T19:53:00.650Z,25.66
2022-08-04T19:55:37.720Z,25.68
2022-08-04T19:58:09.099Z,25.66
2022-08-04T20:00:40.666Z,25.65
2022-08-04T20:03:13.381Z,25.61
2022-08-04T20:05:54.323Z,25.57
2022-08-04T20:08:27.966Z,25.51
2022-08-04T20:10:55.604Z,25.51
2022-08-04T20:13:37.446Z,25.52
2022-08-04T20:16:30.389Z,25.48
2022-08-04T20:19:00.809Z,25.41
2022-08-04T20:21:54.398Z,25.30
2022-08-04T20:24:41.459Z,25.20
2022-08-04T20:27:09.036Z,25.07
2022-08-04T20:29:49.739Z,25.02
2022-08-04T20:32:26.279Z,24.98
2022-08-04T20:34:56.890Z,24.93
2022-08-04T20:37:55.552Z,24.89
2022-08-04T20:40:14.963Z,24.83
2022-08-04T20:42:44.973Z,24.85
2022-08-04T20:45:16.327Z,24.86
2022-08-04T20:47:53.195Z,24.86
2022-08-04T20:50:29.667Z,24.89
2022-08-04T20:52:59.308Z,24.93
2022-08-04T20:55:29.478Z,24.92
2022-08-04T20:58:02.648Z,24.95
2022-08-04T21:00:31.434Z,24.97
2022-08-04T21:03:00.164Z,25.01
2022-08-04T21:05:27.757Z,25.03
2022-08-04T21:07:58.096Z,25.05
2022-08-04T21:10:27.411Z,25.07
2022-08-04T21:12:55.013Z,25.07
2022-08-04T21:15:50.834Z,25.04
2022-08-04T21:18:14.576Z,25.01
2022-08-04T21:20:44.060Z,24.94
2022-08-04T21:23:11.140Z,24.88
2022-08-04T21:25:43.588Z,24.82
2022-08-04T21:28:12.392Z,24.81
2022-08-04T21:30:52.626Z,24.78
2022-08-04T21:33:28.196Z,24.74
2022-08-04T21:36:14.534Z,24.73
2022-08-04T21:38:51.190Z,24.70
2022-08-04T21:41:24.967Z,24.64
2022-08-04T21:43:56.180Z,24.58
2022-08-04T21:46:24.583Z,24.55
2022-08-04T21:48:52.066Z,24.48
2022-08-04T21:51:58.148Z,24.37
2022-08-04T21:54:17.314Z,24.22
2022-08-04T21:56:49.251Z,24.16
2022-08-04T21:59:24.263Z,24.14
2022-08-04T22:02:01.473Z,24.12
2022-08-04T22:04:30.923Z,24.03
2022-08-04T22:06:58.102Z,24.06
2022-08-04T22:09:30.488Z,24.02
2022-08-04T22:12:07.180Z,23.96
2022-08-04T22:14:39.592Z,23.93
2022-08-04T22:17:07.463Z,23.93
2022-08-04T22:19:54.872Z,23.87
2022-08-04T22:22:29.204Z,23.76
2022-08-04T22:25:12.295Z,23.66
2022-08-04T22:28:01.588Z,23.57
2022-08-04T22:30:37.752Z,23.43
2022-08-04T22:33:09.005Z,23.41
2022-08-04T22:35:48.998Z,23.44
2022-08-04T22:38:29.103Z,23.35
2022-08-04T22:41:11.415Z,23.36
2022-08-04T22:43:40.773Z,23.31
2022-08-04T22:46:26.883Z,23.24
2022-08-04T22:48:54.973Z,23.27
2022-08-04T22:51:23.833Z,23.21
2022-08-04T22:53:54.069Z,23.14
2022-08-04T22:56:38.448Z,23.11
2022-08-04T22:59:10.917Z,23.14
2022-08-04T23:01:59.985Z,23.13
2022-08-04T23:04:29.073Z,23.12
2022-08-04T23:06:56.295Z,23.06
2022-08-04T23:09:49.020Z,23.05
2022-08-04T23:12:25.411Z,23.02
2022-08-04T23:14:58.100Z,22.98
2022-08-04T23:17:28.738Z,22.94
2022-08-04T23:19:59.633Z,22.91
2022-08-04T23:22:41.482Z,22.94
2022-08-04T23:25:16.398Z,22.97
2022-08-04T23:27:51.078Z,22.95
2022-08-04T23:30:24.585Z,22.91
2022-08-04T23:32:56.874Z,22.87
2022-08-04T23:35:24.032Z,22.82
2022-08-04T23:37:56.933Z,22.75
2022-08-04T23:40:34.288Z,22.72
2022-08-04T23:43:12.322Z,22.69
2022-08-04T23:46:07.176Z,22.64
2022-08-04T23:48:40.757Z,22.61
2022-08-04T23:51:15.557Z,22.61
2022-08-04T23:54:02.213Z,22.64
2022-08-04T23:56:35.601Z,22.66
2022-08-04T23:59:05.004Z,22.61
